Time;durP1;ratioP1;P1;durP2;ratioP2;P2;SDS_P1;SDS_P2;PMS_P1;PMS_P2;Temp;Humidity;BMP_temperature;BMP_pressure;BME280_temperature;BME280_humidity;BME280_pressure;Samples;Min_cycle;Max_cycle;Signal;HPM_P1;HPM_P2
2022/08/15 00:01:55;;;;;;;;;;;;;;;19.53;100.00;98873.23;1699267;84;20178;-75
2022/08/15 00:04:21;;;;;;;;;;;;;;;19.51;100.00;98872.83;1699609;84;20203;-77
2022/08/15 00:06:49;;;;;;;;;;;;;;;19.48;100.00;98872.19;1699712;84;20090;-77
2022/08/15 00:09:18;;;;;;;;;;;;;;;19.45;100.00;98870.19;1699858;84;21148;-76
2022/08/15 00:11:47;;;;;;;;;;;;;;;19.41;100.00;98876.33;1699797;84;20457;-76
2022/08/15 00:14:17;;;;;;;;;;;;;;;19.39;100.00;98881.49;1699689;84;20094;-77
2022/08/15 00:16:45;;;;;;;;;;;;;;;19.34;100.00;98882.66;1699815;84;20433;-78
2022/08/15 00:19:17;;;;;;;;;;;;;;;19.32;100.00;98880.06;1699738;83;20996;-80
2022/08/15 00:21:47;;;;;;;;;;;;;;;19.29;100.00;98880.84;1699668;84;21144;-79
2022/08/15 00:24:15;;;;;;;;;;;;;;;19.27;100.00;98879.05;1699622;83;20118;-81
2022/08/15 00:26:44;;;;;;;;;;;;;;;19.22;100.00;98881.61;1699614;84;20090;-80
2022/08/15 00:29:12;;;;;;;;;;;;;;;19.19;100.00;98871.25;1690627;84;20134;-80
2022/08/15 00:31:39;;;;;;;;;;;;;;;19.16;100.00;98869.25;1681819;84;20181;-79
2022/08/15 00:34:06;;;;;;;;;;;;;;;19.11;100.00;98870.41;1681858;83;21258;-77
2022/08/15 00:36:34;;;;;;;;;;;;;;;19.10;100.00;98870.80;1699407;84;20433;-82
2022/08/15 00:39:01;;;;;;;;;;;;;;;19.07;100.00;98870.98;1699926;84;20102;-79
2022/08/15 00:41:41;;;;;;;;;;;;;;;19.05;100.00;98867.03;1699506;84;20449;-79
2022/08/15 00:44:13;;;;;;;;;;;;;;;19.01;100.00;98860.64;1699584;84;20125;-79
2022/08/15 00:46:48;;;;;;;;;;;;;;;18.98;100.00;98859.44;1699644;83;21170;-79
2022/08/15 00:49:15;;;;;;;;;;;;;;;18.96;100.00;98854.86;1699735;84;20089;-80
2022/08/15 00:51:55;;;;;;;;;;;;;;;18.94;100.00;98849.48;1699920;84;20131;-79
2022/08/15 00:54:25;;;;;;;;;;;;;;;18.92;100.00;98852.64;1698315;84;20730;-80
2022/08/15 00:57:06;;;;;;;;;;;;;;;18.90;100.00;98852.23;1698184;84;20098;-80
2022/08/15 00:59:35;;;;;;;;;;;;;;;18.87;100.00;98846.06;1693342;83;21087;-77
2022/08/15 01:02:04;;;;;;;;;;;;;;;18.86;100.00;98846.45;1696537;83;20086;-81
2022/08/15 01:04:33;;;;;;;;;;;;;;;18.83;100.00;98845.23;1675784;83;20148;-81
2022/08/15 01:06:59;;;;;;;;;;;;;;;18.83;100.00;98847.22;1666334;86;20438;-80
2022/08/15 01:09:26;;;;;;;;;;;;;;;18.81;100.00;98847.61;1666503;85;20173;-80
2022/08/15 01:11:56;;;;;;;;;;;;;;;18.79;100.00;98852.17;1666353;85;21547;-81
2022/08/15 01:14:22;;;;;;;;;;;;;;;18.78;100.00;98846.99;1666371;86;20439;-78
2022/08/15 01:16:49;;;;;;;;;;;;;;;18.77;100.00;98840.63;1666383;86;20117;-77
2022/08/15 01:19:21;;;;;;;;;;;;;;;18.76;100.00;98840.42;1666473;85;20195;-78
2022/08/15 01:21:54;;;;;;;;;;;;;;;18.77;100.00;98839.83;1666710;86;20097;-78
2022/08/15 01:24:49;;;;;;;;;;;;;;;18.76;100.00;98841.02;1666425;86;21208;-79
2022/08/15 01:27:15;;;;;;;;;;;;;;;18.75;100.00;98829.70;1666251;86;20443;-77
2022/08/15 01:29:41;;;;;;;;;;;;;;;18.74;100.00;98840.61;1666374;85;20175;-77
2022/08/15 01:32:08;;;;;;;;;;;;;;;18.72;100.00;98839.61;1678788;85;20749;-79
2022/08/15 01:34:34;;;;;;;;;;;;;;;18.70;100.00;98837.01;1681832;85;20133;-79
2022/08/15 01:37:01;;;;;;;;;;;;;;;18.69;100.00;98833.42;1685172;85;21116;-78
2022/08/15 01:39:41;;;;;;;;;;;;;;;18.69;100.00;98843.75;1682218;85;38366;-77
2022/08/15 01:42:14;;;;;;;;;;;;;;;18.68;100.00;98842.95;1662124;84;20113;-77
2022/08/15 01:44:43;;;;;;;;;;;;;;;18.67;100.00;98831.62;1682139;85;20086;-77
2022/08/15 01:47:38;;;;;;;;;;;;;;;18.68;100.00;98836.00;1682364;85;20118;-78
2022/08/15 01:50:13;;;;;;;;;;;;;;;18.70;100.00;98837.01;1682250;84;21220;-82
2022/08/15 01:53:02;;;;;;;;;;;;;;;18.74;100.00;98835.05;1681554;84;20102;-83
2022/08/15 01:55:42;;;;;;;;;;;;;;;18.78;100.00;98831.11;1688565;84;20122;-84
2022/08/15 01:58:09;;;;;;;;;;;;;;;18.83;100.00;98828.55;1691672;84;20134;-83
2022/08/15 02:00:35;;;;;;;;;;;;;;;18.88;100.00;98834.34;1690141;84;20452;-84
2022/08/15 02:03:02;;;;;;;;;;;;;;;18.93;100.00;98826.43;1687831;85;21185;-83
2022/08/15 02:05:29;;;;;;;;;;;;;;;18.98;100.00;98826.66;1687881;84;20125;-81
2022/08/15 02:07:58;;;;;;;;;;;;;;;19.00;100.00;98828.45;1688011;84;20141;-83
2022/08/15 02:10:25;;;;;;;;;;;;;;;19.04;100.00;98832.85;1687962;85;20145;-83
2022/08/15 02:12:52;;;;;;;;;;;;;;;19.06;100.00;98833.23;1687927;85;20169;-83
2022/08/15 02:15:21;;;;;;;;;;;;;;;19.10;100.00;98831.27;1687855;85;21160;-85
2022/08/15 02:17:48;;;;;;;;;;;;;;;19.12;100.00;98833.66;1687823;85;20449;-86
2022/08/15 02:20:15;;;;;;;;;;;;;;;19.14;100.00;98834.06;1687980;85;20123;-85
2022/08/15 02:22:42;;;;;;;;;;;;;;;19.17;100.00;98831.09;1687987;85;20085;-85
2022/08/15 02:25:08;;;;;;;;;;;;;;;19.19;100.00;98824.55;1687895;84;20109;-83
2022/08/15 02:27:37;;;;;;;;;;;;;;;19.20;100.00;98827.53;1687976;84;21286;-75
2022/08/15 02:30:08;;;;;;;;;;;;;;;19.24;100.00;98834.71;1687657;85;20177;-76
2022/08/15 02:32:36;;;;;;;;;;;;;;;19.27;100.00;98826.17;1687926;85;20146;-80
2022/08/15 02:35:05;;;;;;;;;;;;;;;19.29;100.00;98826.58;1687863;85;20097;-78
2022/08/15 02:37:32;;;;;;;;;;;;;;;19.29;100.00;98820.42;1688155;85;20086;-78
2022/08/15 02:39:59;;;;;;;;;;;;;;;19.33;100.00;98829.59;1687851;85;21075;-77
2022/08/15 02:42:26;;;;;;;;;;;;;;;19.38;100.00;98831.20;1687719;85;20433;-78
2022/08/15 02:44:52;;;;;;;;;;;;;;;19.40;100.00;98823.25;1687939;85;20074;-75
2022/08/15 02:47:19;;;;;;;;;;;;;;;19.42;100.00;98820.88;1687729;85;20449;-72
2022/08/15 02:49:47;;;;;;;;;;;;;;;19.45;100.00;98825.06;1687792;84;20131;-73
2022/08/15 02:52:14;;;;;;;;;;;;;;;19.47;100.00;98826.06;1687904;84;21362;-78
2022/08/15 02:54:41;;;;;;;;;;;;;;;19.50;100.00;98828.66;1687621;85;20149;-76
2022/08/15 02:57:09;;;;;;;;;;;;;;;19.50;100.00;98832.23;1680523;84;20507;-77
2022/08/15 02:59:37;;;;;;;;;;;;;;;19.52;100.00;98831.28;1682746;84;20129;-77
2022/08/15 03:02:07;;;;;;;;;;;;;;;19.51;100.00;98826.91;1681563;84;20404;-77
2022/08/15 03:04:35;;;;;;;;;;;;;;;19.52;100.00;98831.28;1682183;85;21974;-77
2022/08/15 03:07:02;;;;;;;;;;;;;;;19.52;100.00;98822.93;1681286;85;20469;-77
2022/08/15 03:09:29;;;;;;;;;;;;;;;19.53;100.00;98826.51;1680017;85;20200;-85
2022/08/15 03:11:57;;;;;;;;;;;;;;;19.52;100.00;98828.50;1680045;85;20150;-77
2022/08/15 03:14:26;;;;;;;;;;;;;;;19.54;100.00;98820.55;1680111;85;20437;-79
2022/08/15 03:16:52;;;;;;;;;;;;;;;19.55;100.00;98817.17;1680096;85;21156;-79
2022/08/15 03:19:25;;;;;;;;;;;;;;;19.55;100.00;98817.97;1680130;85;20086;-79
2022/08/15 03:21:50;;;;;;;;;;;;;;;19.56;100.00;98820.16;1680203;85;20090;-80
2022/08/15 03:24:17;;;;;;;;;;;;;;;19.55;100.00;98813.80;1680302;85;20746;-84
2022/08/15 03:26:46;;;;;;;;;;;;;;;19.55;100.00;98803.25;1680269;85;20146;-84
2022/08/15 03:29:16;;;;;;;;;;;;;;;19.55;100.00;98805.44;1680455;85;21155;-83
2022/08/15 03:31:44;;;;;;;;;;;;;;;19.56;100.00;98804.84;1680492;85;20122;-81
2022/08/15 03:34:12;;;;;;;;;;;;;;;19.56;100.00;98807.03;1680296;85;20169;-84
2022/08/15 03:36:40;;;;;;;;;;;;;;;19.57;100.00;98810.02;1680549;85;20760;-84
2022/08/15 03:39:06;;;;;;;;;;;;;;;19.58;100.00;98809.42;1680384;85;20218;-84
2022/08/15 03:41:33;;;;;;;;;;;;;;;19.59;100.00;98809.03;1680420;85;21559;-83
2022/08/15 03:44:00;;;;;;;;;;;;;;;19.61;100.00;98805.86;1680489;84;20436;-81
2022/08/15 03:46:27;;;;;;;;;;;;;;;19.61;100.00;98804.46;1680435;85;20110;-83
2022/08/15 03:48:54;;;;;;;;;;;;;;;19.63;100.00;98803.47;1680399;85;20122;-79
2022/08/15 03:51:21;;;;;;;;;;;;;;;19.67;100.00;98807.03;1680687;85;20469;-81
2022/08/15 03:53:50;;;;;;;;;;;;;;;19.69;100.00;98813.80;1680551;85;21046;-78
2022/08/15 03:56:19;;;;;;;;;;;;;;;19.69;100.00;98815.19;1679967;84;20198;-79
2022/08/15 03:58:46;;;;;;;;;;;;;;;19.69;100.00;98809.63;1680427;85;20110;-80
2022/08/15 04:01:25;;;;;;;;;;;;;;;19.71;100.00;98810.63;1680134;85;20597;-80
2022/08/15 04:03:51;;;;;;;;;;;;;;;19.71;100.00;98808.64;1680400;84;20094;-75
2022/08/15 04:06:21;;;;;;;;;;;;;;;19.72;100.00;98808.04;1680588;85;21033;-79
2022/08/15 04:08:50;;;;;;;;;;;;;;;19.73;100.00;98809.63;1680607;85;20118;-79
2022/08/15 04:11:18;;;;;;;;;;;;;;;19.73;100.00;98811.83;1680448;85;20149;-79
2022/08/15 04:13:45;;;;;;;;;;;;;;;19.72;100.00;98806.05;1680499;85;20415;-83
2022/08/15 04:16:12;;;;;;;;;;;;;;;19.71;100.00;98803.06;1680349;85;20448;-79
2022/08/15 04:18:39;;;;;;;;;;;;;;;19.72;100.00;98808.84;1680598;85;21113;-85
2022/08/15 04:21:07;;;;;;;;;;;;;;;19.75;100.00;98810.84;1680612;85;20110;-81
2022/08/15 04:23:34;;;;;;;;;;;;;;;19.75;100.00;98803.08;1680389;85;20106;-84
2022/08/15 04:26:00;;;;;;;;;;;;;;;19.74;100.00;98805.06;1659147;85;20472;-81
2022/08/15 04:28:29;;;;;;;;;;;;;;;19.77;100.00;98804.87;1680651;85;20121;-75
2022/08/15 04:30:56;;;;;;;;;;;;;;;19.78;100.00;98799.50;1680739;85;21109;-84
2022/08/15 04:33:26;;;;;;;;;;;;;;;19.81;100.00;98800.10;1680278;85;20198;-80
2022/08/15 04:35:54;;;;;;;;;;;;;;;19.83;100.00;98796.33;1680568;85;20086;-73
2022/08/15 04:38:22;;;;;;;;;;;;;;;19.86;100.00;98796.13;1680624;85;20114;-71
2022/08/15 04:40:49;;;;;;;;;;;;;;;19.89;100.00;98792.55;1680599;85;20078;-72
2022/08/15 04:43:18;;;;;;;;;;;;;;;19.91;100.00;98779.03;1680422;85;21095;-71
2022/08/15 04:45:44;;;;;;;;;;;;;;;19.97;100.00;98787.99;1680668;85;20086;-80
2022/08/15 04:48:14;;;;;;;;;;;;;;;20.06;100.00;98788.40;1680397;85;20571;-75
2022/08/15 04:50:39;;;;;;;;;;;;;;;20.16;100.00;98789.59;1680477;85;20450;-73
2022/08/15 04:53:08;;;;;;;;;;;;;;;20.26;100.00;98781.01;1680496;85;20436;-72
2022/08/15 04:55:35;;;;;;;;;;;;;;;20.34;100.00;98782.00;1680368;85;21120;-73
2022/08/15 04:58:02;;;;;;;;;;;;;;;20.42;100.00;98787.00;1680209;85;20157;-73
2022/08/15 05:00:30;;;;;;;;;;;;;;;20.48;100.00;98802.13;1680631;85;20441;-74
2022/08/15 05:03:14;;;;;;;;;;;;;;;20.55;100.00;98794.36;1679860;85;20154;-82
2022/08/15 05:05:44;;;;;;;;;;;;;;;20.61;100.00;98792.16;1680645;85;20086;-86
2022/08/15 05:08:12;;;;;;;;;;;;;;;20.69;100.00;98797.13;1680402;85;21144;-81
2022/08/15 05:10:40;;;;;;;;;;;;;;;20.73;100.00;98796.52;1681656;85;20099;-72
2022/08/15 05:13:09;;;;;;;;;;;;;;;20.78;100.00;98791.13;1680802;85;20440;-73
2022/08/15 05:15:36;;;;;;;;;;;;;;;20.82;100.00;98789.90;1679713;85;20438;-85
2022/08/15 05:18:03;;;;;;;;;;;;;;;20.87;100.00;98790.09;1657972;85;20437;-83
2022/08/15 05:20:30;;;;;;;;;;;;;;;20.92;100.00;98786.28;1679519;85;21139;-82
2022/08/15 05:23:01;;;;;;;;;;;;;;;21.00;100.00;98787.86;1680458;85;20125;-73
2022/08/15 05:25:29;;;;;;;;;;;;;;;21.13;100.00;98787.41;1681023;84;20412;-76
2022/08/15 05:27:56;;;;;;;;;;;;;;;21.28;100.00;98788.98;1681210;85;20205;-81
2022/08/15 05:30:23;;;;;;;;;;;;;;;21.43;100.00;98779.31;1681613;85;20114;-81
2022/08/15 05:33:07;;;;;;;;;;;;;;;21.58;100.00;98777.23;1680455;85;21139;-77
2022/08/15 05:35:35;;;;;;;;;;;;;;;21.71;100.00;98774.96;1679025;85;20090;-74
2022/08/15 05:38:04;;;;;;;;;;;;;;;21.80;100.00;98780.09;1680864;85;20074;-74
2022/08/15 05:40:35;;;;;;;;;;;;;;;21.82;100.00;98784.67;1680655;85;20122;-73
2022/08/15 05:43:05;;;;;;;;;;;;;;;21.86;99.92;98786.05;1680290;85;20098;-76
2022/08/15 05:45:41;;;;;;;;;;;;;;;21.93;99.61;98786.79;1680831;84;21062;-82
2022/08/15 05:48:19;;;;;;;;;;;;;;;22.06;98.75;98780.91;1678768;84;20137;-84
2022/08/15 05:51:01;;;;;;;;;;;;;;;22.21;98.31;98787.18;1679770;85;20137;-84
2022/08/15 05:53:36;;;;;;;;;;;;;;;22.43;98.01;98785.60;1679862;85;20085;-81
2022/08/15 05:56:12;;;;;;;;;;;;;;;22.63;96.91;98784.58;1681356;83;20460;-80
2022/08/15 05:58:55;;;;;;;;;;;;;;;22.78;95.05;98786.63;1705763;84;20587;-79
2022/08/15 06:01:31;;;;;;;;;;;;;;;22.87;92.26;98779.17;1706842;83;20527;-79
2022/08/15 06:04:21;;;;;;;;;;;;;;;22.91;92.41;98788.32;1689033;84;20097;-80
2022/08/15 06:06:52;;;;;;;;;;;;;;;22.90;92.77;98778.34;1661533;85;20422;-86
2022/08/15 06:09:29;;;;;;;;;;;;;;;22.83;91.49;98795.20;1688793;85;20404;-78
2022/08/15 06:11:58;;;;;;;;;;;;;;;22.74;92.19;98794.27;1688937;84;21165;-81
2022/08/15 06:14:39;;;;;;;;;;;;;;;22.69;92.19;98794.71;1687474;85;20438;-84
2022/08/15 06:17:08;;;;;;;;;;;;;;;22.70;91.66;98794.91;1689132;84;20427;-75
2022/08/15 06:19:44;;;;;;;;;;;;;;;22.78;92.15;98793.62;1678817;85;20118;-75
2022/08/15 06:22:34;;;;;;;;;;;;;;;22.91;90.85;98787.72;1661238;85;20482;-75
2022/08/15 06:25:12;;;;;;;;;;;;;;;23.01;89.71;98799.40;1676434;85;20103;-86
2022/08/15 06:27:57;;;;;;;;;;;;;;;23.05;89.63;98793.16;1687257;85;20103;-88
2022/08/15 06:30:35;;;;;;;;;;;;;;;23.07;89.61;98790.55;1689385;83;20177;-78
2022/08/15 06:33:16;;;;;;;;;;;;;;;23.05;89.57;98795.16;1688724;85;20095;-84
2022/08/15 06:36:05;;;;;;;;;;;;;;;23.07;89.46;98797.55;1675743;85;20104;-79
2022/08/15 06:39:01;;;;;;;;;;;;;;;23.15;89.12;98786.42;1661676;85;20116;-81
2022/08/15 06:41:31;;;;;;;;;;;;;;;23.23;88.94;98786.52;1687967;85;20087;-79
2022/08/15 06:44:05;;;;;;;;;;;;;;;23.26;87.11;98785.08;1661096;85;20104;-83
2022/08/15 06:46:38;;;;;;;;;;;;;;;23.24;87.97;98785.31;1683175;85;20099;-77
2022/08/15 06:49:13;;;;;;;;;;;;;;;23.24;87.84;98790.91;1684085;85;20100;-80
2022/08/15 06:51:39;;;;;;;;;;;;;;;23.15;86.31;98796.22;1693099;82;21185;-79
2022/08/15 06:54:06;;;;;;;;;;;;;;;23.02;87.06;98801.59;1674004;85;20124;-89
2022/08/15 06:56:52;;;;;;;;;;;;;;;22.91;88.00;98791.91;1678173;84;20163;-87
2022/08/15 06:59:35;;;;;;;;;;;;;;;22.83;88.64;98783.41;1676124;82;20786;-76
2022/08/15 07:02:23;;;;;;;;;;;;;;;22.76;88.86;98782.05;1692403;84;20424;-72
2022/08/15 07:04:59;;;;;;;;;;;;;;;22.69;89.97;98780.73;1703955;84;21571;-73
2022/08/15 07:07:47;;;;;;;;;;;;;;;22.63;90.50;98787.98;1665007;84;20515;-78
2022/08/15 07:10:24;;;;;;;;;;;;;;;22.58;91.41;98788.42;1702081;83;20482;-75
2022/08/15 07:13:14;;;;;;;;;;;;;;;22.50;91.93;98789.13;1699114;84;20098;-83
2022/08/15 07:16:04;;;;;;;;;;;;;;;22.40;92.23;98796.41;1704679;83;20090;-84
2022/08/15 07:18:40;;;;;;;;;;;;;;;22.27;93.45;98779.94;1664072;84;20119;-84
2022/08/15 07:21:20;;;;;;;;;;;;;;;22.14;94.25;98775.27;1682846;85;20143;-90
2022/08/15 07:24:09;;;;;;;;;;;;;;;21.97;95.19;98776.35;1684939;85;20119;-86
2022/08/15 07:26:51;;;;;;;;;;;;;;;21.85;96.60;98783.06;1679375;85;20131;-89
2022/08/15 07:29:25;;;;;;;;;;;;;;;21.73;97.88;98783.73;1685273;85;20150;-77
2022/08/15 07:31:52;;;;;;;;;;;;;;;21.67;98.80;98785.96;1684153;85;20877;-86
2022/08/15 07:34:22;;;;;;;;;;;;;;;21.61;99.82;98790.39;1689923;84;20110;-79
2022/08/15 07:37:00;;;;;;;;;;;;;;;21.61;100.00;98793.97;1684600;83;20237;-83
2022/08/15 07:39:37;;;;;;;;;;;;;;;21.62;100.00;98797.56;1712574;83;20194;-79
2022/08/15 07:42:13;;;;;;;;;;;;;;;21.64;100.00;98814.11;1696116;82;20115;-82
2022/08/15 07:44:51;;;;;;;;;;;;;;;21.67;100.00;98817.48;1684742;85;21079;-80
2022/08/15 07:47:26;;;;;;;;;;;;;;;21.73;100.00;98820.64;1663292;85;20508;-86
2022/08/15 07:50:09;;;;;;;;;;;;;;;21.85;100.00;98824.97;1684234;85;20107;-84
2022/08/15 07:52:47;;;;;;;;;;;;;;;21.97;100.00;98825.25;1662116;85;20186;-85
2022/08/15 07:55:16;;;;;;;;;;;;;;;22.15;100.00;98818.78;1684473;85;20210;-84
2022/08/15 07:58:05;;;;;;;;;;;;;;;22.30;100.00;98818.27;1680894;85;21259;-81
2022/08/15 08:00:36;;;;;;;;;;;;;;;22.44;98.36;98825.73;1676762;84;20151;-85
2022/08/15 08:03:10;;;;;;;;;;;;;;;22.55;95.47;98831.21;1676193;85;20458;-84
2022/08/15 08:05:57;;;;;;;;;;;;;;;22.61;95.39;98830.35;1677317;85;20115;-76
2022/08/15 08:08:35;;;;;;;;;;;;;;;22.69;94.62;98837.47;1677125;85;20131;-81
2022/08/15 08:11:10;;;;;;;;;;;;;;;22.78;93.54;98837.59;1655689;85;21110;-76
2022/08/15 08:13:45;;;;;;;;;;;;;;;22.83;93.32;98830.98;1675964;85;20131;-76
2022/08/15 08:16:40;;;;;;;;;;;;;;;22.88;90.05;98827.73;1676851;85;20505;-76
2022/08/15 08:19:13;;;;;;;;;;;;;;;22.88;89.44;98823.53;1676995;85;20116;-78
2022/08/15 08:21:49;;;;;;;;;;;;;;;22.93;89.60;98818.08;1677351;85;20186;-79
2022/08/15 08:24:46;;;;;;;;;;;;;;;23.03;89.85;98824.17;1677028;85;20956;-79
2022/08/15 08:27:35;;;;;;;;;;;;;;;23.27;89.04;98823.67;1677431;85;20151;-78
2022/08/15 08:30:05;;;;;;;;;;;;;;;23.51;86.49;98818.38;1630668;86;20175;-79
2022/08/15 08:32:44;;;;;;;;;;;;;;;23.65;86.00;98814.02;1625735;87;20098;-78
2022/08/15 08:35:17;;;;;;;;;;;;;;;23.79;85.43;98815.00;1635826;87;20116;-77
2022/08/15 08:38:00;;;;;;;;;;;;;;;24.03;85.55;98813.23;1650397;86;22163;-77
2022/08/15 08:43:49;;;;;;;;;;;;;;;24.48;83.08;98816.34;1652182;86;20108;-78
2022/08/15 08:46:39;;;;;;;;;;;;;;;24.55;81.15;98818.41;1647919;87;20128;-78
2022/08/15 08:49:19;;;;;;;;;;;;;;;24.51;81.11;98821.09;1651723;87;20120;-78
2022/08/15 08:52:02;;;;;;;;;;;;;;;24.40;80.47;98812.86;1651620;87;21220;-79
2022/08/15 08:54:35;;;;;;;;;;;;;;;24.40;81.04;98807.86;1651970;86;20454;-79
2022/08/15 08:57:04;;;;;;;;;;;;;;;24.65;82.43;98808.23;1653928;84;20138;-79
2022/08/15 08:59:36;;;;;;;;;;;;;;;25.13;82.10;98808.34;1680851;84;20126;-79
2022/08/15 09:02:09;;;;;;;;;;;;;;;25.71;80.30;98807.34;1680745;85;20098;-79
2022/08/15 09:04:40;;;;;;;;;;;;;;;26.39;79.35;98803.73;1680624;84;21171;-80
2022/08/15 09:07:07;;;;;;;;;;;;;;;27.00;76.28;98800.12;1680054;84;20114;-78
2022/08/15 09:09:36;;;;;;;;;;;;;;;27.32;71.95;98799.98;1659759;85;20118;-77
2022/08/15 09:15:01;;;;;;;;;;;;;;;27.19;69.34;98792.11;1680603;84;20122;-79
2022/08/15 09:17:29;;;;;;;;;;;;;;;27.20;71.10;98793.69;1680882;85;21062;-78
2022/08/15 09:20:06;;;;;;;;;;;;;;;27.10;68.31;98789.18;1680811;84;20126;-78
2022/08/15 09:22:32;;;;;;;;;;;;;;;26.84;70.00;98786.23;1680593;85;20429;-79
2022/08/15 09:24:59;;;;;;;;;;;;;;;26.51;70.27;98786.14;1680482;85;20085;-78
2022/08/15 09:27:42;;;;;;;;;;;;;;;26.24;72.28;98794.20;1680697;84;20122;-78
2022/08/15 09:30:09;;;;;;;;;;;;;;;26.06;72.24;98785.41;1676005;84;20865;-79
2022/08/15 09:33:00;;;;;;;;;;;;;;;25.84;72.71;98785.75;1680822;84;20122;-78
2022/08/15 09:35:49;;;;;;;;;;;;;;;25.66;73.55;98781.33;1679948;85;20171;-78
2022/08/15 09:38:37;;;;;;;;;;;;;;;25.48;73.83;98782.30;1680911;85;20440;-77
2022/08/15 09:41:32;;;;;;;;;;;;;;;25.50;74.75;98779.05;1673760;84;20117;-79
2022/08/15 09:44:09;;;;;;;;;;;;;;;25.57;74.49;98791.55;1672838;83;21128;-85
2022/08/15 09:46:39;;;;;;;;;;;;;;;25.62;75.58;98798.06;1665937;83;20135;-84
2022/08/15 09:49:22;;;;;;;;;;;;;;;25.77;76.12;98803.58;1665181;84;20088;-82
2022/08/15 09:52:12;;;;;;;;;;;;;;;26.05;76.83;98803.50;1669234;83;20148;-80
2022/08/15 09:54:47;;;;;;;;;;;;;;;26.44;75.21;98794.14;1653172;85;20096;-87
2022/08/15 09:57:38;;;;;;;;;;;;;;;26.80;71.03;98795.39;1653201;86;22196;-80
2022/08/15 10:00:17;;;;;;;;;;;;;;;26.87;66.94;98798.02;1668713;86;20092;-72
2022/08/15 10:02:46;;;;;;;;;;;;;;;26.68;66.97;98786.88;1669085;85;20100;-73
2022/08/15 10:05:27;;;;;;;;;;;;;;;26.43;66.77;98791.16;1669091;85;20160;-73
2022/08/15 10:07:56;;;;;;;;;;;;;;;26.16;67.73;98794.20;1668856;86;20100;-72
2022/08/15 10:10:36;;;;;;;;;;;;;;;25.89;67.76;98789.45;1669210;85;21227;-72
2022/08/15 10:13:09;;;;;;;;;;;;;;;25.65;67.96;98788.17;1668317;85;20088;-73
2022/08/15 10:15:46;;;;;;;;;;;;;;;25.41;68.77;98792.31;1668659;85;20136;-73
2022/08/15 10:18:12;;;;;;;;;;;;;;;25.24;69.38;98790.66;1667226;86;20184;-73
2022/08/15 10:20:42;;;;;;;;;;;;;;;25.07;69.21;98776.37;1667811;85;20463;-73
2022/08/15 10:23:11;;;;;;;;;;;;;;;24.96;70.51;98763.33;1668026;85;21762;-72
2022/08/15 10:25:42;;;;;;;;;;;;;;;24.96;70.42;98761.13;1667059;85;20167;-72
2022/08/15 10:28:16;;;;;;;;;;;;;;;24.99;69.29;98762.47;1650066;86;20104;-74
2022/08/15 10:30:46;;;;;;;;;;;;;;;25.09;70.38;98763.48;1669066;85;20113;-72
2022/08/15 10:33:35;;;;;;;;;;;;;;;25.18;70.69;98760.09;1669380;85;20100;-73
2022/08/15 10:36:13;;;;;;;;;;;;;;;25.30;70.95;98761.63;1669442;85;21178;-73
2022/08/15 10:38:44;;;;;;;;;;;;;;;25.31;70.08;98752.59;1668206;85;20335;-74
2022/08/15 10:41:27;;;;;;;;;;;;;;;25.30;70.37;98763.66;1667705;85;20149;-76
2022/08/15 10:44:24;;;;;;;;;;;;;;;25.28;71.29;98771.11;1669055;86;20163;-75
2022/08/15 10:47:00;;;;;;;;;;;;;;;25.27;71.07;98768.73;1669089;85;20124;-80
2022/08/15 10:49:30;;;;;;;;;;;;;;;25.25;71.27;98782.41;1669578;85;21072;-79
2022/08/15 10:52:10;;;;;;;;;;;;;;;25.31;70.88;98794.73;1667946;86;20439;-75
2022/08/15 10:55:06;;;;;;;;;;;;;;;25.40;71.41;98801.17;1670108;85;20125;-75
2022/08/15 10:57:48;;;;;;;;;;;;;;;25.70;71.94;98800.12;1669006;85;20105;-75
2022/08/15 11:00:47;;;;;;;;;;;;;;;26.04;69.64;98801.92;1667922;85;20101;-80
2022/08/15 11:03:22;;;;;;;;;;;;;;;26.23;70.42;98806.69;1668283;86;21168;-84
2022/08/15 11:06:02;;;;;;;;;;;;;;;26.26;68.27;98805.02;1667462;86;20455;-82
2022/08/15 11:08:38;;;;;;;;;;;;;;;26.11;67.43;98793.93;1640611;86;20100;-83
2022/08/15 11:11:08;;;;;;;;;;;;;;;25.89;68.66;98781.02;1671686;85;20104;-72
2022/08/15 11:13:36;;;;;;;;;;;;;;;25.71;68.95;98794.69;1645473;86;20109;-85
2022/08/15 11:16:16;;;;;;;;;;;;;;;25.50;68.78;98804.34;1649239;86;20088;-78
2022/08/15 11:18:54;;;;;;;;;;;;;;;25.20;70.00;98809.60;1649445;86;20419;-72
2022/08/15 11:21:37;;;;;;;;;;;;;;;24.86;72.01;98823.25;1666497;85;20144;-74
2022/08/15 11:24:09;;;;;;;;;;;;;;;24.54;73.88;98830.86;1669157;85;20230;-73
2022/08/15 11:26:42;;;;;;;;;;;;;;;24.21;76.25;98834.00;1674614;84;20135;-73
2022/08/15 11:29:22;;;;;;;;;;;;;;;23.94;79.19;98829.00;1682647;84;21295;-86
2022/08/15 11:31:58;;;;;;;;;;;;;;;23.66;81.97;98833.02;1685394;85;20117;-77
2022/08/15 11:34:32;;;;;;;;;;;;;;;23.37;84.48;98821.35;1682846;85;20116;-84
2022/08/15 11:37:06;;;;;;;;;;;;;;;23.10;87.16;98833.89;1681605;85;20152;-84
2022/08/15 11:39:38;;;;;;;;;;;;;;;22.86;89.75;98844.14;1659923;85;20088;-82
2022/08/15 11:42:05;;;;;;;;;;;;;;;22.63;92.66;98855.11;1683044;85;21859;-83
2022/08/15 11:44:40;;;;;;;;;;;;;;;22.46;95.64;98840.10;1673366;84;20210;-81
2022/08/15 11:47:09;;;;;;;;;;;;;;;22.31;96.99;98840.81;1696620;84;20102;-85
2022/08/15 11:49:52;;;;;;;;;;;;;;;22.20;98.68;98826.13;1652436;84;20123;-75
2022/08/15 11:52:23;;;;;;;;;;;;;;;22.10;100.00;98828.39;1696806;84;20098;-78
2022/08/15 11:55:24;;;;;;;;;;;;;;;21.96;100.00;98834.84;1676216;84;20099;-82
2022/08/15 11:58:00;;;;;;;;;;;;;;;21.86;100.00;98833.54;1666468;83;20494;-79
2022/08/15 12:00:45;;;;;;;;;;;;;;;21.75;100.00;98814.05;1696208;83;20118;-82
2022/08/15 12:03:24;;;;;;;;;;;;;;;21.71;100.00;98818.26;1696035;84;20428;-84
2022/08/15 12:05:58;;;;;;;;;;;;;;;21.65;100.00;98812.91;1698881;84;20074;-78
2022/08/15 12:08:36;;;;;;;;;;;;;;;21.59;100.00;98820.72;1681989;84;20094;-87
2022/08/15 12:11:21;;;;;;;;;;;;;;;21.54;100.00;98820.54;1701216;84;20074;-84
2022/08/15 12:14:05;;;;;;;;;;;;;;;21.52;100.00;98822.15;1659857;84;20098;-90
2022/08/15 12:16:50;;;;;;;;;;;;;;;21.52;100.00;98822.15;1682615;84;20504;-72
2022/08/15 12:19:30;;;;;;;;;;;;;;;21.53;100.00;98823.14;1699675;84;20133;-76
2022/08/15 12:22:01;;;;;;;;;;;;;;;21.58;100.00;98814.34;1681464;84;20487;-78
2022/08/15 12:24:37;;;;;;;;;;;;;;;21.68;100.00;98810.69;1701755;84;20114;-79
2022/08/15 12:27:06;;;;;;;;;;;;;;;21.77;100.00;98803.86;1701657;84;20098;-78
2022/08/15 12:29:34;;;;;;;;;;;;;;;21.86;100.00;98791.63;1701411;84;20102;-76
2022/08/15 12:32:08;;;;;;;;;;;;;;;21.98;100.00;98785.53;1701744;84;20090;-80
2022/08/15 12:34:41;;;;;;;;;;;;;;;22.13;100.00;98780.66;1682141;84;20102;-75
2022/08/15 12:37:22;;;;;;;;;;;;;;;22.27;100.00;98775.75;1680468;84;20085;-93
2022/08/15 12:39:53;;;;;;;;;;;;;;;22.44;100.00;98778.80;1701997;84;20460;-79
2022/08/15 12:42:31;;;;;;;;;;;;;;;22.59;100.00;98787.22;1699677;84;20097;-76
2022/08/15 12:45:18;;;;;;;;;;;;;;;22.71;100.00;98786.09;1702593;84;20118;-78
2022/08/15 12:47:57;;;;;;;;;;;;;;;22.84;100.00;98794.79;1701241;84;21180;-80
2022/08/15 12:50:19;;;;;;;;;;;;;;;22.99;100.00;98798.23;1698949;84;20145;-81
2022/08/15 12:52:47;;;;;;;;;;;;;;;23.10;99.44;98798.91;1701111;84;20086;-82
2022/08/15 12:55:18;;;;;;;;;;;;;;;23.21;97.79;98798.14;1702269;84;20470;-82
2022/08/15 12:57:44;;;;;;;;;;;;;;;23.30;96.40;98796.23;1702244;84;20137;-83
2022/08/15 13:00:15;;;;;;;;;;;;;;;23.39;96.55;98790.92;1702768;83;21331;-84
2022/08/15 13:02:51;;;;;;;;;;;;;;;23.48;96.16;98785.60;1681815;84;20105;-81
2022/08/15 13:05:18;;;;;;;;;;;;;;;23.57;95.18;98786.52;1663108;85;20165;-80
2022/08/15 13:07:46;;;;;;;;;;;;;;;23.64;94.63;98785.81;1662295;86;20511;-79
2022/08/15 13:10:19;;;;;;;;;;;;;;;23.72;93.88;98786.47;1664169;85;20440;-81
2022/08/15 13:12:46;;;;;;;;;;;;;;;23.79;93.85;98790.58;1664400;86;21575;-80
2022/08/15 13:15:12;;;;;;;;;;;;;;;23.84;93.90;98788.70;1664144;85;20424;-78
2022/08/15 13:17:40;;;;;;;;;;;;;;;23.90;92.75;98782.80;1642576;86;20161;-76
2022/08/15 13:25:44;;;;;;;;;;;;;;;23.99;92.29;98786.48;1665906;84;21143;-81